createdAt,value
2022-11-26T00:01:56.527Z,11.67
2022-11-26T00:07:26.961Z,10.97
2022-11-26T00:19:56.116Z,11.83
2022-11-26T00:25:30.025Z,10.60
2022-11-26T01:02:11.337Z,9.97
2022-11-26T01:19:44.492Z,9.13
2022-11-26T01:31:14.775Z,9.07
2022-11-26T01:37:03.419Z,9.40
2022-11-26T01:48:54.226Z,8.93
2022-11-26T01:59:47.242Z,9.03
2022-11-26T02:05:04.014Z,9.47
2022-11-26T02:10:17.215Z,9.10
2022-11-26T02:15:27.515Z,9.43
2022-11-26T02:20:56.614Z,9.80
2022-11-26T02:26:31.288Z,10.67
2022-11-26T02:31:46.149Z,11.50
2022-11-26T02:37:01.935Z,11.27
2022-11-26T02:42:25.738Z,10.87
2022-11-26T02:47:35.491Z,11.37
2022-11-26T02:52:40.208Z,11.47
2022-11-26T02:57:48.243Z,12.00
2022-11-26T03:02:59.630Z,13.03
2022-11-26T03:08:03.977Z,11.50
2022-11-26T03:13:06.942Z,11.93
2022-11-26T03:18:11.110Z,11.53
2022-11-26T03:23:13.947Z,11.00
2022-11-26T03:28:16.683Z,11.93
2022-11-26T03:33:21.191Z,10.73
2022-11-26T03:38:24.044Z,10.57
2022-11-26T03:43:27.186Z,11.33
2022-11-26T03:48:32.218Z,10.20
2022-11-26T03:53:35.145Z,10.50
2022-11-26T03:58:38.887Z,9.10
2022-11-26T04:03:45.539Z,9.83
2022-11-26T04:08:51.503Z,10.53
2022-11-26T04:13:54.817Z,11.13
2022-11-26T04:18:59.985Z,12.07
2022-11-26T04:24:03.010Z,12.03
2022-11-26T04:29:06.039Z,12.33
2022-11-26T04:34:10.122Z,13.17
2022-11-26T04:39:13.381Z,14.37
2022-11-26T04:44:16.418Z,14.27
2022-11-26T04:49:20.854Z,13.27
2022-11-26T04:54:24.419Z,13.27
2022-11-26T04:59:28.084Z,14.00
2022-11-26T05:04:32.670Z,13.67
2022-11-26T05:09:36.346Z,14.17
2022-11-26T05:14:40.122Z,14.97
2022-11-26T05:19:44.989Z,15.27
2022-11-26T05:24:48.089Z,15.40
2022-11-26T05:29:51.182Z,14.13
2022-11-26T05:35:00.081Z,14.20
2022-11-26T05:40:04.606Z,15.27
2022-11-26T05:45:13.465Z,15.87
2022-11-26T05:50:17.823Z,15.07
2022-11-26T05:55:20.633Z,14.63
2022-11-26T06:00:27.432Z,15.03
2022-11-26T06:05:31.508Z,15.30
2022-11-26T06:10:34.605Z,16.83
2022-11-26T06:15:37.405Z,17.93
2022-11-26T06:20:41.565Z,17.83
2022-11-26T06:25:44.729Z,17.30
2022-11-26T06:30:47.553Z,18.50
2022-11-26T06:35:51.698Z,16.57
2022-11-26T06:40:59.774Z,17.10
2022-11-26T06:46:03.694Z,19.13
2022-11-26T06:51:09.953Z,17.47
2022-11-26T06:56:18.346Z,17.70
2022-11-26T07:01:24.499Z,18.03
2022-11-26T07:06:30.650Z,17.40
2022-11-26T07:11:34.259Z,17.27
2022-11-26T07:16:37.744Z,16.53
2022-11-26T07:21:42.417Z,16.77
2022-11-26T07:26:45.311Z,16.70
2022-11-26T07:31:48.046Z,15.37
2022-11-26T07:36:56.747Z,16.40
2022-11-26T07:42:00.714Z,15.13
2022-11-26T07:47:04.359Z,14.43
2022-11-26T07:52:08.710Z,14.37
2022-11-26T07:57:12.054Z,13.40
2022-11-26T08:02:15.855Z,13.03
2022-11-26T08:07:24.703Z,13.13
2022-11-26T08:12:31.782Z,12.30
2022-11-26T08:17:34.545Z,10.80
2022-11-26T08:22:38.749Z,10.30
2022-11-26T08:27:41.627Z,10.80
2022-11-26T08:32:44.366Z,10.43
2022-11-26T08:37:48.421Z,10.23
2022-11-26T08:42:51.173Z,10.30
2022-11-26T08:47:55.149Z,12.40
2022-11-26T08:52:59.222Z,8.13
2022-11-26T08:58:01.986Z,7.70
2022-11-26T09:03:04.942Z,6.87
2022-11-26T09:08:09.066Z,6.37
2022-11-26T09:13:11.801Z,6.50
2022-11-26T09:18:14.625Z,6.70
2022-11-26T09:23:18.703Z,6.07
2022-11-26T09:28:21.432Z,6.17
2022-11-26T09:33:24.200Z,6.47
2022-11-26T09:38:28.243Z,6.97
2022-11-26T09:43:50.575Z,6.27
2022-11-26T09:49:02.611Z,7.40
2022-11-26T09:54:11.010Z,6.93
2022-11-26T09:59:16.241Z,6.17
2022-11-26T10:04:24.490Z,6.10
2022-11-26T10:09:49.862Z,6.40
2022-11-26T10:15:00.456Z,7.00
2022-11-26T10:20:29.410Z,6.97
2022-11-26T10:25:39.799Z,5.73
2022-11-26T10:30:43.083Z,6.00
2022-11-26T10:35:48.003Z,4.60
2022-11-26T10:40:52.084Z,4.23
2022-11-26T10:45:56.743Z,4.50
2022-11-26T10:51:02.460Z,4.40
2022-11-26T10:56:08.052Z,4.27
2022-11-26T11:01:14.248Z,3.57
2022-11-26T11:06:28.887Z,4.30
2022-11-26T11:11:33.025Z,4.33
2022-11-26T11:16:40.853Z,5.00
2022-11-26T11:21:48.349Z,4.23
2022-11-26T11:26:54.934Z,4.13
2022-11-26T11:31:58.854Z,3.83
2022-11-26T11:37:03.006Z,4.43
2022-11-26T11:42:16.966Z,3.30
2022-11-26T11:47:35.129Z,3.23
2022-11-26T11:52:47.655Z,4.10
2022-11-26T11:58:24.600Z,4.23
2022-11-26T12:03:58.969Z,3.90
2022-11-26T12:09:10.864Z,4.10
2022-11-26T12:14:21.288Z,3.73
2022-11-26T12:19:35.073Z,3.30
2022-11-26T12:24:45.507Z,3.90
2022-11-26T12:29:56.129Z,3.77
2022-11-26T12:35:05.766Z,4.10
2022-11-26T12:40:17.509Z,4.50
2022-11-26T12:45:33.946Z,3.80
2022-11-26T12:50:44.001Z,3.80
2022-11-26T12:55:55.099Z,3.70
2022-11-26T13:00:59.692Z,3.50
2022-11-26T13:06:08.163Z,3.57
2022-11-26T13:11:25.984Z,3.60
2022-11-26T13:16:37.882Z,3.77
2022-11-26T13:21:57.848Z,4.40
2022-11-26T13:27:16.633Z,3.30
2022-11-26T13:32:43.396Z,3.50
2022-11-26T13:38:02.731Z,3.13
2022-11-26T13:43:23.471Z,3.50
2022-11-26T13:48:35.371Z,2.93
2022-11-26T13:53:41.183Z,3.70
2022-11-26T13:58:47.729Z,3.93
2022-11-26T14:03:51.845Z,3.73
2022-11-26T14:08:55.426Z,4.13
2022-11-26T14:14:30.621Z,4.13
2022-11-26T14:19:59.581Z,3.87
2022-11-26T14:25:04.821Z,3.70
2022-11-26T14:30:26.621Z,4.20
2022-11-26T14:35:34.621Z,4.50
2022-11-26T14:40:39.231Z,4.10
2022-11-26T14:45:43.139Z,4.10
2022-11-26T14:50:47.463Z,4.00
2022-11-26T14:55:51.994Z,4.00
2022-11-26T15:01:18.652Z,3.57
2022-11-26T15:06:27.270Z,4.73
2022-11-26T15:11:31.811Z,3.77
2022-11-26T15:16:37.876Z,4.07
2022-11-26T15:21:42.421Z,3.80
2022-11-26T15:26:47.955Z,3.57
2022-11-26T15:31:50.733Z,4.30
2022-11-26T15:36:54.874Z,3.97
2022-11-26T15:42:02.841Z,4.30
2022-11-26T15:47:06.740Z,4.60
2022-11-26T15:52:12.983Z,4.17
2022-11-26T15:57:25.018Z,4.50
2022-11-26T16:02:31.073Z,5.40
2022-11-26T16:07:35.414Z,4.33
2022-11-26T16:12:40.629Z,4.93
2022-11-26T16:17:43.540Z,4.53
2022-11-26T16:22:50.647Z,4.40
2022-11-26T16:28:04.364Z,5.13
2022-11-26T16:33:07.463Z,5.00
2022-11-26T16:38:20.020Z,5.97
2022-11-26T16:43:23.252Z,5.80
2022-11-26T16:48:28.080Z,5.57
2022-11-26T16:53:32.212Z,6.10
2022-11-26T16:58:37.611Z,7.23
2022-11-26T17:03:40.477Z,8.03
2022-11-26T17:08:49.528Z,7.87
2022-11-26T17:13:53.121Z,9.07
2022-11-26T17:18:56.080Z,8.53
2022-11-26T17:24:01.008Z,9.90
2022-11-26T17:29:04.515Z,9.80
2022-11-26T17:34:07.285Z,9.93
2022-11-26T17:39:12.389Z,12.93
2022-11-26T17:44:15.396Z,11.47
2022-11-26T17:49:18.495Z,12.47
2022-11-26T17:54:23.585Z,14.13
2022-11-26T17:59:26.441Z,15.20
2022-11-26T18:04:29.693Z,15.43
2022-11-26T18:09:34.325Z,14.93
2022-11-26T18:14:42.350Z,15.10
2022-11-26T18:19:45.665Z,15.20
2022-11-26T18:24:56.563Z,16.10
2022-11-26T18:30:00.405Z,15.87
2022-11-26T18:35:04.331Z,16.23
2022-11-26T18:40:12.475Z,14.90
2022-11-26T18:45:18.088Z,14.90
2022-11-26T18:50:24.948Z,14.37
2022-11-26T18:55:33.987Z,14.03
2022-11-26T19:00:38.927Z,14.10
2022-11-26T19:05:45.003Z,14.67
2022-11-26T19:10:51.551Z,16.03
2022-11-26T19:15:55.741Z,14.97
2022-11-26T19:21:00.018Z,15.23
2022-11-26T19:26:35.161Z,16.17
2022-11-26T19:31:43.076Z,17.13
2022-11-26T19:36:49.233Z,16.97
2022-11-26T19:41:57.872Z,19.70
2022-11-26T19:47:01.197Z,17.93
2022-11-26T19:52:05.525Z,16.60
2022-11-26T19:57:10.817Z,17.80
2022-11-26T20:02:15.660Z,18.57
2022-11-26T20:07:19.159Z,22.63
2022-11-26T20:12:24.503Z,19.07
2022-11-26T20:17:29.095Z,16.73
2022-11-26T20:22:36.353Z,15.63
2022-11-26T20:27:44.079Z,17.03
2022-11-26T20:32:49.683Z,15.43
2022-11-26T20:37:53.355Z,19.83
2022-11-26T20:43:02.698Z,20.13
2022-11-26T20:48:07.260Z,18.90
2022-11-26T20:53:10.963Z,19.40
2022-11-26T20:58:18.204Z,19.30
2022-11-26T21:03:22.523Z,20.07
2022-11-26T21:08:25.626Z,20.07
2022-11-26T21:13:30.278Z,18.87
2022-11-26T21:18:33.919Z,19.03
2022-11-26T21:23:40.038Z,16.57
2022-11-26T21:28:45.132Z,17.30
2022-11-26T21:33:50.406Z,17.33
2022-11-26T21:38:54.002Z,16.77
2022-11-26T21:44:03.210Z,18.13
2022-11-26T21:49:11.196Z,18.30
2022-11-26T21:54:14.704Z,19.23
2022-11-26T21:59:20.161Z,17.60
2022-11-26T22:04:24.088Z,18.33
2022-11-26T22:09:28.486Z,17.50
2022-11-26T22:14:34.387Z,16.57
2022-11-26T22:19:39.789Z,17.93
2022-11-26T22:24:42.696Z,18.37
2022-11-26T22:29:46.768Z,18.47
2022-11-26T22:34:49.504Z,17.47
2022-11-26T22:39:54.062Z,12.47
2022-11-26T22:44:58.282Z,10.77
2022-11-26T22:50:01.043Z,10.40
2022-11-26T22:55:03.963Z,9.53
2022-11-26T23:00:13.419Z,9.07
2022-11-26T23:05:16.266Z,8.50
2022-11-26T23:10:19.127Z,8.77
2022-11-26T23:15:23.235Z,8.50
2022-11-26T23:20:26.576Z,8.50
2022-11-26T23:25:29.485Z,7.73
2022-11-26T23:30:33.546Z,9.00
2022-11-26T23:35:36.295Z,8.43
2022-11-26T23:40:39.077Z,9.30
2022-11-26T23:45:43.233Z,9.10
2022-11-26T23:50:46.001Z,9.27
2022-11-26T23:55:49.198Z,9.10
